sensor_id;sensor_type;location;lat;lon;timestamp;pressure;altitude;pressure_sealevel;temperature;humidity
34674;BME280;20879;55.668;37.858;2023-02-16T00:00:47;100676.34;;;-4.34;76.41
34674;BME280;20879;55.668;37.858;2023-02-16T00:03:19;100647.13;;;-4.57;76.52
34674;BME280;20879;55.668;37.858;2023-02-16T00:05:49;100679.28;;;-4.41;77.08
34674;BME280;20879;55.668;37.858;2023-02-16T00:08:19;100681.13;;;-4.39;76.94
34674;BME280;20879;55.668;37.858;2023-02-16T00:10:57;100681.31;;;-4.35;77.05
34674;BME280;20879;55.668;37.858;2023-02-16T00:13:42;100677.03;;;-4.36;76.89
34674;BME280;20879;55.668;37.858;2023-02-16T00:16:20;100677.72;;;-4.39;77.05
34674;BME280;20879;55.668;37.858;2023-02-16T00:18:50;100664.69;;;-4.45;77.11
34674;BME280;20879;55.668;37.858;2023-02-16T00:21:20;100677.81;;;-4.37;77.23
34674;BME280;20879;55.668;37.858;2023-02-16T00:23:50;100675.47;;;-4.34;77.12
34674;BME280;20879;55.668;37.858;2023-02-16T00:26:33;100674.16;;;-4.28;77.39
34674;BME280;20879;55.668;37.858;2023-02-16T00:29:04;100666.00;;;-4.24;77.09
34674;BME280;20879;55.668;37.858;2023-02-16T00:31:34;100665.91;;;-4.25;76.67
34674;BME280;20879;55.668;37.858;2023-02-16T00:34:24;100676.50;;;-4.31;76.94
34674;BME280;20879;55.668;37.858;2023-02-16T00:36:54;100656.97;;;-4.33;76.77
34674;BME280;20879;55.668;37.858;2023-02-16T00:39:24;100661.16;;;-4.34;77.09
34674;BME280;20879;55.668;37.858;2023-02-16T00:41:56;100620.63;;;-4.64;77.25
34674;BME280;20879;55.668;37.858;2023-02-16T00:44:33;100624.28;;;-4.59;77.82
34674;BME280;20879;55.668;37.858;2023-02-16T00:47:16;100667.44;;;-4.42;77.87
34674;BME280;20879;55.668;37.858;2023-02-16T00:49:47;100665.09;;;-4.39;77.80
34674;BME280;20879;55.668;37.858;2023-02-16T00:52:35;100660.81;;;-4.40;78.13
34674;BME280;20879;55.668;37.858;2023-02-16T00:55:13;100657.81;;;-4.48;78.74
34674;BME280;20879;55.668;37.858;2023-02-16T00:57:51;100656.75;;;-4.51;78.82
34674;BME280;20879;55.668;37.858;2023-02-16T01:00:26;100665.00;;;-4.41;78.18
34674;BME280;20879;55.668;37.858;2023-02-16T01:03:00;100665.84;;;-4.40;78.27
34674;BME280;20879;55.668;37.858;2023-02-16T01:05:35;100647.13;;;-4.57;78.58
34674;BME280;20879;55.668;37.858;2023-02-16T01:08:11;100663.75;;;-4.47;79.16
34674;BME280;20879;55.668;37.858;2023-02-16T01:11:00;100655.63;;;-4.57;79.07
34674;BME280;20879;55.668;37.858;2023-02-16T01:13:43;100675.44;;;-4.49;79.21
34674;BME280;20879;55.668;37.858;2023-02-16T01:16:18;100666.81;;;-4.66;80.42
34674;BME280;20879;55.668;37.858;2023-02-16T01:18:54;100663.41;;;-4.80;80.66
34674;BME280;20879;55.668;37.858;2023-02-16T01:21:24;100639.16;;;-4.92;80.89
34674;BME280;20879;55.668;37.858;2023-02-16T01:23:54;100675.66;;;-4.73;81.03
34674;BME280;20879;55.668;37.858;2023-02-16T01:26:29;100665.75;;;-4.70;80.98
34674;BME280;20879;55.668;37.858;2023-02-16T01:29:00;100681.09;;;-4.67;80.67
34674;BME280;20879;55.668;37.858;2023-02-16T01:31:31;100663.03;;;-4.73;81.18
34674;BME280;20879;55.668;37.858;2023-02-16T01:34:02;100647.41;;;-4.81;81.46
34674;BME280;20879;55.668;37.858;2023-02-16T01:36:34;100677.41;;;-4.72;82.11
34674;BME280;20879;55.668;37.858;2023-02-16T01:39:06;100672.75;;;-4.79;82.30
34674;BME280;20879;55.668;37.858;2023-02-16T01:41:44;100682.47;;;-4.72;83.04
34674;BME280;20879;55.668;37.858;2023-02-16T01:44:22;100676.47;;;-4.74;83.61
34674;BME280;20879;55.668;37.858;2023-02-16T01:47:05;100683.84;;;-4.77;82.56
34674;BME280;20879;55.668;37.858;2023-02-16T01:49:39;100696.66;;;-4.74;83.10
34674;BME280;20879;55.668;37.858;2023-02-16T01:52:13;100644.13;;;-4.93;82.91
34674;BME280;20879;55.668;37.858;2023-02-16T01:55:04;100690.34;;;-4.81;83.14
34674;BME280;20879;55.668;37.858;2023-02-16T01:57:41;100679.56;;;-4.78;83.07
34674;BME280;20879;55.668;37.858;2023-02-16T02:00:18;100678.72;;;-4.79;82.92
34674;BME280;20879;55.668;37.858;2023-02-16T02:02:58;100682.28;;;-4.75;83.41
34674;BME280;20879;55.668;37.858;2023-02-16T02:05:49;100670.63;;;-4.86;83.19
34674;BME280;20879;55.668;37.858;2023-02-16T02:08:36;100676.06;;;-4.80;83.46
34674;BME280;20879;55.668;37.858;2023-02-16T02:11:19;100675.09;;;-4.82;83.00
34674;BME280;20879;55.668;37.858;2023-02-16T02:13:57;100663.84;;;-4.87;82.66
34674;BME280;20879;55.668;37.858;2023-02-16T02:16:31;100645.75;;;-4.94;83.20
34674;BME280;20879;55.668;37.858;2023-02-16T02:19:02;100664.81;;;-4.85;83.28
34674;BME280;20879;55.668;37.858;2023-02-16T02:21:52;100689.94;;;-4.74;83.21
34674;BME280;20879;55.668;37.858;2023-02-16T02:25:13;100680.25;;;-4.81;83.24
34674;BME280;20879;55.668;37.858;2023-02-16T02:27:56;100664.16;;;-4.96;82.58
34674;BME280;20879;55.668;37.858;2023-02-16T02:30:43;100681.50;;;-4.74;82.66
34674;BME280;20879;55.668;37.858;2023-02-16T02:33:26;100685.19;;;-4.69;82.57
34674;BME280;20879;55.668;37.858;2023-02-16T02:36:08;100645.56;;;-4.97;82.37
34674;BME280;20879;55.668;37.858;2023-02-16T02:38:48;100683.22;;;-4.73;82.16
34674;BME280;20879;55.668;37.858;2023-02-16T02:41:31;100635.97;;;-5.02;82.40
34674;BME280;20879;55.668;37.858;2023-02-16T02:44:20;100675.28;;;-4.79;82.57
34674;BME280;20879;55.668;37.858;2023-02-16T02:46:50;100664.81;;;-4.85;82.43
34674;BME280;20879;55.668;37.858;2023-02-16T02:49:20;100668.41;;;-4.95;82.29
34674;BME280;20879;55.668;37.858;2023-02-16T02:51:50;100680.16;;;-4.82;82.59
34674;BME280;20879;55.668;37.858;2023-02-16T02:54:21;100678.00;;;-4.76;82.29
34674;BME280;20879;55.668;37.858;2023-02-16T02:57:11;100686.06;;;-4.82;82.22
34674;BME280;20879;55.668;37.858;2023-02-16T02:59:59;100661.50;;;-5.11;82.56
34674;BME280;20879;55.668;37.858;2023-02-16T03:02:50;100606.00;;;-5.38;83.03
34674;BME280;20879;55.668;37.858;2023-02-16T03:05:22;100669.78;;;-5.00;82.91
34674;BME280;20879;55.668;37.858;2023-02-16T03:07:54;100676.25;;;-4.91;83.30
34674;BME280;20879;55.668;37.858;2023-02-16T03:10:35;100644.81;;;-5.09;82.50
34674;BME280;20879;55.668;37.858;2023-02-16T03:13:21;100672.00;;;-4.92;82.66
34674;BME280;20879;55.668;37.858;2023-02-16T03:15:55;100660.72;;;-4.97;83.09
34674;BME280;20879;55.668;37.858;2023-02-16T03:18:27;100688.00;;;-4.78;82.96
34674;BME280;20879;55.668;37.858;2023-02-16T03:21:12;100670.34;;;-4.91;83.34
34674;BME280;20879;55.668;37.858;2023-02-16T03:23:58;100699.78;;;-4.92;83.21
34674;BME280;20879;55.668;37.858;2023-02-16T03:26:41;100662.50;;;-4.96;83.88
34674;BME280;20879;55.668;37.858;2023-02-16T03:29:25;100690.94;;;-4.98;83.73
34674;BME280;20879;55.668;37.858;2023-02-16T03:31:56;100688.59;;;-4.95;84.09
34674;BME280;20879;55.668;37.858;2023-02-16T03:34:28;100691.41;;;-4.91;83.87
34674;BME280;20879;55.668;37.858;2023-02-16T03:36:59;100693.66;;;-4.82;84.12
34674;BME280;20879;55.668;37.858;2023-02-16T03:39:28;100695.41;;;-4.81;83.30
34674;BME280;20879;55.668;37.858;2023-02-16T03:42:22;100677.34;;;-5.00;83.32
34674;BME280;20879;55.668;37.858;2023-02-16T03:44:58;100685.41;;;-4.93;83.36
34674;BME280;20879;55.668;37.858;2023-02-16T03:47:32;100651.13;;;-5.02;83.42
34674;BME280;20879;55.668;37.858;2023-02-16T03:50:01;100630.72;;;-5.05;83.54
34674;BME280;20879;55.668;37.858;2023-02-16T03:52:30;100676.84;;;-4.81;83.46
34674;BME280;20879;55.668;37.858;2023-02-16T03:54:59;100652.38;;;-4.96;83.16
34674;BME280;20879;55.668;37.858;2023-02-16T03:57:29;100618.59;;;-5.24;82.99
34674;BME280;20879;55.668;37.858;2023-02-16T03:59:59;100677.16;;;-4.90;83.36
34674;BME280;20879;55.668;37.858;2023-02-16T04:02:32;100679.22;;;-4.98;83.72
34674;BME280;20879;55.668;37.858;2023-02-16T04:05:07;100684.75;;;-5.03;83.99
34674;BME280;20879;55.668;37.858;2023-02-16T04:07:36;100673.66;;;-5.05;84.53
34674;BME280;20879;55.668;37.858;2023-02-16T04:10:06;100661.63;;;-4.96;84.37
34674;BME280;20879;55.668;37.858;2023-02-16T04:12:41;100671.41;;;-5.01;84.01
34674;BME280;20879;55.668;37.858;2023-02-16T04:15:10;100676.88;;;-4.95;84.44
34674;BME280;20879;55.668;37.858;2023-02-16T04:17:41;100641.13;;;-5.14;84.57
34674;BME280;20879;55.668;37.858;2023-02-16T04:20:17;100665.78;;;-4.97;84.74
34674;BME280;20879;55.668;37.858;2023-02-16T04:22:48;100677.84;;;-4.93;84.50
34674;BME280;20879;55.668;37.858;2023-02-16T04:25:18;100625.97;;;-5.28;83.62
34674;BME280;20879;55.668;37.858;2023-02-16T04:27:48;100676.88;;;-5.08;84.24
34674;BME280;20879;55.668;37.858;2023-02-16T04:30:19;100650.84;;;-5.20;85.30
34674;BME280;20879;55.668;37.858;2023-02-16T04:32:51;100664.44;;;-5.18;85.26
34674;BME280;20879;55.668;37.858;2023-02-16T04:35:20;100652.78;;;-5.16;85.41
34674;BME280;20879;55.668;37.858;2023-02-16T04:37:50;100656.56;;;-5.10;85.91
34674;BME280;20879;55.668;37.858;2023-02-16T04:40:19;100666.34;;;-5.01;85.41
34674;BME280;20879;55.668;37.858;2023-02-16T04:42:49;100643.47;;;-5.17;85.89
34674;BME280;20879;55.668;37.858;2023-02-16T04:45:18;100682.53;;;-5.12;85.86
34674;BME280;20879;55.668;37.858;2023-02-16T04:47:47;100659.00;;;-5.11;85.53
34674;BME280;20879;55.668;37.858;2023-02-16T04:50:19;100653.34;;;-5.07;86.07
34674;BME280;20879;55.668;37.858;2023-02-16T04:52:48;100651.41;;;-5.24;85.87
34674;BME280;20879;55.668;37.858;2023-02-16T04:55:17;100657.03;;;-5.42;86.92
34674;BME280;20879;55.668;37.858;2023-02-16T04:57:52;100669.00;;;-5.39;87.29
34674;BME280;20879;55.668;37.858;2023-02-16T05:00:21;100679.00;;;-5.41;86.87
34674;BME280;20879;55.668;37.858;2023-02-16T05:02:50;100661.22;;;-5.42;85.84
34674;BME280;20879;55.668;37.858;2023-02-16T05:05:22;100673.56;;;-5.34;86.09
34674;BME280;20879;55.668;37.858;2023-02-16T05:07:51;100649.56;;;-5.40;87.21
34674;BME280;20879;55.668;37.858;2023-02-16T05:10:20;100634.72;;;-5.63;86.43
34674;BME280;20879;55.668;37.858;2023-02-16T05:12:49;100667.94;;;-5.43;87.61
34674;BME280;20879;55.668;37.858;2023-02-16T05:15:33;100675.13;;;-5.36;87.05
34674;BME280;20879;55.668;37.858;2023-02-16T05:18:02;100659.56;;;-5.42;88.29
34674;BME280;20879;55.668;37.858;2023-02-16T05:20:33;100679.38;;;-5.35;88.24
34674;BME280;20879;55.668;37.858;2023-02-16T05:23:16;100658.22;;;-5.37;88.23
34674;BME280;20879;55.668;37.858;2023-02-16T05:25:45;100680.19;;;-5.36;87.33
34674;BME280;20879;55.668;37.858;2023-02-16T05:28:15;100675.13;;;-5.36;88.39
34674;BME280;20879;55.668;37.858;2023-02-16T05:30:44;100664.53;;;-5.44;88.35
34674;BME280;20879;55.668;37.858;2023-02-16T05:33:18;100686.19;;;-5.34;87.62
34674;BME280;20879;55.668;37.858;2023-02-16T05:35:49;100674.91;;;-5.39;87.91
34674;BME280;20879;55.668;37.858;2023-02-16T05:38:19;100666.00;;;-5.34;87.25
34674;BME280;20879;55.668;37.858;2023-02-16T05:40:57;100683.19;;;-5.28;86.77
34674;BME280;20879;55.668;37.858;2023-02-16T05:43:26;100644.63;;;-5.39;87.36
34674;BME280;20879;55.668;37.858;2023-02-16T05:45:56;100628.31;;;-5.44;86.95
34674;BME280;20879;55.668;37.858;2023-02-16T05:48:25;100670.56;;;-5.41;87.75
34674;BME280;20879;55.668;37.858;2023-02-16T05:50:56;100677.06;;;-5.32;87.57
34674;BME280;20879;55.668;37.858;2023-02-16T05:53:31;100649.66;;;-5.39;87.68
34674;BME280;20879;55.668;37.858;2023-02-16T05:56:00;100662.09;;;-5.29;86.60
34674;BME280;20879;55.668;37.858;2023-02-16T05:58:33;100673.97;;;-5.28;87.08
34674;BME280;20879;55.668;37.858;2023-02-16T06:01:03;100671.03;;;-5.20;86.78
34674;BME280;20879;55.668;37.858;2023-02-16T06:03:32;100666.47;;;-5.13;86.98
34674;BME280;20879;55.668;37.858;2023-02-16T06:06:05;100664.84;;;-5.12;86.85
34674;BME280;20879;55.668;37.858;2023-02-16T06:08:38;100680.56;;;-5.03;86.95
34674;BME280;20879;55.668;37.858;2023-02-16T06:11:07;100649.69;;;-5.12;86.83
34674;BME280;20879;55.668;37.858;2023-02-16T06:13:57;100653.63;;;-5.02;86.12
34674;BME280;20879;55.668;37.858;2023-02-16T06:16:30;100668.69;;;-5.04;85.21
34674;BME280;20879;55.668;37.858;2023-02-16T06:19:00;100638.78;;;-5.24;85.78
34674;BME280;20879;55.668;37.858;2023-02-16T06:21:32;100660.06;;;-4.94;84.83
34674;BME280;20879;55.668;37.858;2023-02-16T06:24:01;100657.53;;;-5.07;83.98
34674;BME280;20879;55.668;37.858;2023-02-16T06:26:31;100660.34;;;-5.03;84.08
34674;BME280;20879;55.668;37.858;2023-02-16T06:29:00;100670.94;;;-5.09;84.66
34674;BME280;20879;55.668;37.858;2023-02-16T06:31:30;100668.31;;;-5.10;84.29
34674;BME280;20879;55.668;37.858;2023-02-16T06:34:02;100661.41;;;-4.99;83.83
34674;BME280;20879;55.668;37.858;2023-02-16T06:36:34;100679.41;;;-4.95;84.15
34674;BME280;20879;55.668;37.858;2023-02-16T06:39:10;100640.72;;;-4.94;84.02
34674;BME280;20879;55.668;37.858;2023-02-16T06:41:39;100609.06;;;-5.02;83.60
34674;BME280;20879;55.668;37.858;2023-02-16T06:44:10;100666.75;;;-4.81;83.56
34674;BME280;20879;55.668;37.858;2023-02-16T06:46:40;100634.72;;;-5.09;85.58
34674;BME280;20879;55.668;37.858;2023-02-16T06:49:10;100662.97;;;-5.01;85.47
34674;BME280;20879;55.668;37.858;2023-02-16T06:51:43;100661.03;;;-5.05;85.33
34674;BME280;20879;55.668;37.858;2023-02-16T06:54:14;100665.56;;;-4.86;84.75
34674;BME280;20879;55.668;37.858;2023-02-16T06:56:44;100642.84;;;-4.86;84.40
34674;BME280;20879;55.668;37.858;2023-02-16T06:59:13;100662.44;;;-4.69;84.31
34674;BME280;20879;55.668;37.858;2023-02-16T07:01:42;100669.78;;;-4.59;83.55
34674;BME280;20879;55.668;37.858;2023-02-16T07:04:12;100657.56;;;-4.66;82.50
34674;BME280;20879;55.668;37.858;2023-02-16T07:06:53;100661.53;;;-4.56;82.36
34674;BME280;20879;55.668;37.858;2023-02-16T07:09:22;100650.59;;;-4.70;83.35
34674;BME280;20879;55.668;37.858;2023-02-16T07:11:51;100659.97;;;-4.54;82.93
34674;BME280;20879;55.668;37.858;2023-02-16T07:14:29;100659.53;;;-4.47;82.83
34674;BME280;20879;55.668;37.858;2023-02-16T07:16:58;100657.13;;;-4.45;82.18
34674;BME280;20879;55.668;37.858;2023-02-16T07:19:30;100656.38;;;-4.58;82.00
34674;BME280;20879;55.668;37.858;2023-02-16T07:22:03;100650.50;;;-4.43;82.11
34674;BME280;20879;55.668;37.858;2023-02-16T07:24:33;100651.59;;;-4.25;81.86
34674;BME280;20879;55.668;37.858;2023-02-16T07:27:02;100656.19;;;-4.04;81.22
34674;BME280;20879;55.668;37.858;2023-02-16T07:29:37;100660.34;;;-4.05;80.45
34674;BME280;20879;55.668;37.858;2023-02-16T07:32:12;100664.03;;;-3.99;80.24
34674;BME280;20879;55.668;37.858;2023-02-16T07:34:44;100664.91;;;-3.99;79.42
34674;BME280;20879;55.668;37.858;2023-02-16T07:37:15;100651.84;;;-3.92;79.17
34674;BME280;20879;55.668;37.858;2023-02-16T07:39:50;100651.66;;;-3.95;79.22
34674;BME280;20879;55.668;37.858;2023-02-16T07:42:19;100657.78;;;-3.76;78.25
34674;BME280;20879;55.668;37.858;2023-02-16T07:44:56;100650.38;;;-3.73;77.08
34674;BME280;20879;55.668;37.858;2023-02-16T07:47:25;100638.41;;;-3.91;76.99
34674;BME280;20879;55.668;37.858;2023-02-16T07:49:59;100639.94;;;-4.08;77.48
34674;BME280;20879;55.668;37.858;2023-02-16T07:52:35;100642.91;;;-4.00;77.41
34674;BME280;20879;55.668;37.858;2023-02-16T07:55:10;100647.03;;;-3.87;76.30
34674;BME280;20879;55.668;37.858;2023-02-16T07:57:39;100650.06;;;-3.93;76.79
34674;BME280;20879;55.668;37.858;2023-02-16T08:00:10;100647.63;;;-3.91;76.55
34674;BME280;20879;55.668;37.858;2023-02-16T08:02:40;100580.59;;;-4.28;76.42
34674;BME280;20879;55.668;37.858;2023-02-16T08:05:09;100636.31;;;-3.68;75.74
34674;BME280;20879;55.668;37.858;2023-02-16T08:07:45;100646.44;;;-3.68;75.63
34674;BME280;20879;55.668;37.858;2023-02-16T08:10:15;100579.91;;;-4.10;75.55
34674;BME280;20879;55.668;37.858;2023-02-16T08:12:44;100659.78;;;-3.71;75.71
34674;BME280;20879;55.668;37.858;2023-02-16T08:15:15;100645.13;;;-3.76;75.41
34674;BME280;20879;55.668;37.858;2023-02-16T08:17:45;100634.47;;;-3.86;75.75
34674;BME280;20879;55.668;37.858;2023-02-16T08:20:15;100597.66;;;-3.95;74.41
34674;BME280;20879;55.668;37.858;2023-02-16T08:22:46;100628.47;;;-3.88;74.75
34674;BME280;20879;55.668;37.858;2023-02-16T08:25:15;100657.06;;;-3.89;75.19
34674;BME280;20879;55.668;37.858;2023-02-16T08:27:48;100656.03;;;-3.77;75.08
34674;BME280;20879;55.668;37.858;2023-02-16T08:30:23;100639.00;;;-3.80;75.18
34674;BME280;20879;55.668;37.858;2023-02-16T08:32:53;100648.09;;;-3.54;75.38
34674;BME280;20879;55.668;37.858;2023-02-16T08:35:31;100643.44;;;-3.31;74.61
34674;BME280;20879;55.668;37.858;2023-02-16T08:38:02;100638.84;;;-3.07;73.29
34674;BME280;20879;55.668;37.858;2023-02-16T08:40:46;100633.13;;;-3.19;72.43
34674;BME280;20879;55.668;37.858;2023-02-16T08:43:21;100651.66;;;-3.35;73.37
34674;BME280;20879;55.668;37.858;2023-02-16T08:45:50;100586.13;;;-3.75;72.98
34674;BME280;20879;55.668;37.858;2023-02-16T08:48:19;100644.25;;;-3.47;73.70
34674;BME280;20879;55.668;37.858;2023-02-16T08:50:48;100623.03;;;-3.64;73.71
34674;BME280;20879;55.668;37.858;2023-02-16T08:53:23;100640.66;;;-3.51;73.75
34674;BME280;20879;55.668;37.858;2023-02-16T08:55:54;100611.25;;;-3.63;73.78
34674;BME280;20879;55.668;37.858;2023-02-16T08:58:23;100635.16;;;-3.43;73.02
34674;BME280;20879;55.668;37.858;2023-02-16T09:00:53;100613.25;;;-3.58;73.44
34674;BME280;20879;55.668;37.858;2023-02-16T09:03:23;100559.16;;;-4.05;73.44
34674;BME280;20879;55.668;37.858;2023-02-16T09:05:59;100622.09;;;-3.66;73.54
34674;BME280;20879;55.668;37.858;2023-02-16T09:08:33;100625.66;;;-3.62;74.06
34674;BME280;20879;55.668;37.858;2023-02-16T09:11:11;100625.72;;;-3.46;73.74
34674;BME280;20879;55.668;37.858;2023-02-16T09:13:41;100636.31;;;-3.38;72.26
34674;BME280;20879;55.668;37.858;2023-02-16T09:16:14;100630.72;;;-3.62;72.33
34674;BME280;20879;55.668;37.858;2023-02-16T09:18:44;100642.31;;;-3.81;72.83
34674;BME280;20879;55.668;37.858;2023-02-16T09:21:15;100612.56;;;-4.00;72.92
34674;BME280;20879;55.668;37.858;2023-02-16T09:23:54;100593.16;;;-4.14;72.68
34674;BME280;20879;55.668;37.858;2023-02-16T09:26:32;100637.34;;;-3.94;72.49
34674;BME280;20879;55.668;37.858;2023-02-16T09:29:02;100624.94;;;-3.90;72.37
34674;BME280;20879;55.668;37.858;2023-02-16T09:31:33;100618.34;;;-3.88;71.91
34674;BME280;20879;55.668;37.858;2023-02-16T09:34:05;100629.56;;;-3.82;72.14
34674;BME280;20879;55.668;37.858;2023-02-16T09:36:34;100646.09;;;-3.74;70.94
34674;BME280;20879;55.668;37.858;2023-02-16T09:39:07;100628.03;;;-3.80;70.99
34674;BME280;20879;55.668;37.858;2023-02-16T09:41:53;100621.03;;;-3.70;70.65
34674;BME280;20879;55.668;37.858;2023-02-16T09:44:30;100581.75;;;-3.93;70.20
34674;BME280;20879;55.668;37.858;2023-02-16T09:47:14;100617.28;;;-3.61;69.49
34674;BME280;20879;55.668;37.858;2023-02-16T09:49:51;100619.28;;;-3.56;69.86
34674;BME280;20879;55.668;37.858;2023-02-16T09:52:27;100635.09;;;-3.60;70.11
34674;BME280;20879;55.668;37.858;2023-02-16T09:55:03;100619.38;;;-3.69;70.26
34674;BME280;20879;55.668;37.858;2023-02-16T09:57:50;100601.19;;;-3.62;70.27
34674;BME280;20879;55.668;37.858;2023-02-16T10:00:43;100619.72;;;-3.78;70.17
34674;BME280;20879;55.668;37.858;2023-02-16T10:03:37;100616.50;;;-3.75;70.35
34674;BME280;20879;55.668;37.858;2023-02-16T10:06:25;100627.50;;;-3.60;70.15
34674;BME280;20879;55.668;37.858;2023-02-16T10:09:09;100628.69;;;-3.53;70.44
34674;BME280;20879;55.668;37.858;2023-02-16T10:11:44;100625.81;;;-3.44;69.93
34674;BME280;20879;55.668;37.858;2023-02-16T10:14:24;100612.69;;;-3.37;68.93
34674;BME280;20879;55.668;37.858;2023-02-16T10:17:12;100618.38;;;-3.41;68.66
34674;BME280;20879;55.668;37.858;2023-02-16T10:19:47;100628.06;;;-3.19;68.55
34674;BME280;20879;55.668;37.858;2023-02-16T10:22:24;100631.03;;;-3.26;67.62
34674;BME280;20879;55.668;37.858;2023-02-16T10:24:59;100615.56;;;-3.31;67.89
34674;BME280;20879;55.668;37.858;2023-02-16T10:27:37;100614.88;;;-3.28;67.98
34674;BME280;20879;55.668;37.858;2023-02-16T10:30:15;100625.31;;;-3.54;68.57
34674;BME280;20879;55.668;37.858;2023-02-16T10:32:54;100624.00;;;-3.62;69.01
34674;BME280;20879;55.668;37.858;2023-02-16T10:35:36;100621.56;;;-3.45;69.12
34674;BME280;20879;55.668;37.858;2023-02-16T10:38:22;100621.16;;;-3.22;68.77
34674;BME280;20879;55.668;37.858;2023-02-16T10:41:02;100609.56;;;-3.33;67.72
34674;BME280;20879;55.668;37.858;2023-02-16T10:43:41;100611.22;;;-3.34;67.41
34674;BME280;20879;55.668;37.858;2023-02-16T10:46:21;100593.78;;;-3.59;65.84
34674;BME280;20879;55.668;37.858;2023-02-16T10:48:52;100595.81;;;-3.68;65.75
34674;BME280;20879;55.668;37.858;2023-02-16T10:51:24;100608.09;;;-3.29;65.76
34674;BME280;20879;55.668;37.858;2023-02-16T10:53:58;100562.84;;;-3.38;64.56
34674;BME280;20879;55.668;37.858;2023-02-16T10:56:42;100607.41;;;-3.10;64.46
34674;BME280;20879;55.668;37.858;2023-02-16T10:59:19;100596.09;;;-3.01;64.57
34674;BME280;20879;55.668;37.858;2023-02-16T11:01:56;100608.84;;;-2.99;64.03
34674;BME280;20879;55.668;37.858;2023-02-16T11:04:37;100595.00;;;-2.89;62.49
34674;BME280;20879;55.668;37.858;2023-02-16T11:07:09;100541.53;;;-3.73;61.51
34674;BME280;20879;55.668;37.858;2023-02-16T11:09:47;100554.31;;;-3.55;62.16
34674;BME280;20879;55.668;37.858;2023-02-16T11:12:25;100589.84;;;-3.54;62.16
34674;BME280;20879;55.668;37.858;2023-02-16T11:15:00;100596.84;;;-3.49;61.82
34674;BME280;20879;55.668;37.858;2023-02-16T11:17:47;100581.66;;;-3.49;61.93
34674;BME280;20879;55.668;37.858;2023-02-16T11:20:26;100597.41;;;-3.39;61.95
34674;BME280;20879;55.668;37.858;2023-02-16T11:23:22;100574.28;;;-3.76;62.10
34674;BME280;20879;55.668;37.858;2023-02-16T11:26:00;100517.38;;;-3.98;62.54
34674;BME280;20879;55.668;37.858;2023-02-16T11:28:32;100598.03;;;-3.43;62.44
34674;BME280;20879;55.668;37.858;2023-02-16T11:31:11;100578.41;;;-3.47;62.10
34674;BME280;20879;55.668;37.858;2023-02-16T11:33:54;100600.13;;;-3.36;61.79
34674;BME280;20879;55.668;37.858;2023-02-16T11:36:28;100568.47;;;-3.44;62.47
34674;BME280;20879;55.668;37.858;2023-02-16T11:39:01;100598.81;;;-3.29;62.23
34674;BME280;20879;55.668;37.858;2023-02-16T11:41:33;100599.75;;;-3.27;62.69
34674;BME280;20879;55.668;37.858;2023-02-16T11:44:03;100599.13;;;-3.23;62.54
34674;BME280;20879;55.668;37.858;2023-02-16T11:46:39;100575.41;;;-3.08;62.20
34674;BME280;20879;55.668;37.858;2023-02-16T11:49:31;100600.47;;;-3.44;60.97
34674;BME280;20879;55.668;37.858;2023-02-16T11:52:00;100574.53;;;-3.40;60.68
34674;BME280;20879;55.668;37.858;2023-02-16T11:54:47;100593.13;;;-3.40;60.44
34674;BME280;20879;55.668;37.858;2023-02-16T11:57:33;100594.28;;;-3.35;60.47
34674;BME280;20879;55.668;37.858;2023-02-16T12:00:13;100579.69;;;-3.39;59.79
34674;BME280;20879;55.668;37.858;2023-02-16T12:03:13;100588.34;;;-3.35;60.51
34674;BME280;20879;55.668;37.858;2023-02-16T12:05:57;100587.38;;;-3.37;61.04
34674;BME280;20879;55.668;37.858;2023-02-16T12:11:29;100578.78;;;-3.56;61.16
34674;BME280;20879;55.668;37.858;2023-02-16T12:14:16;100557.31;;;-3.62;61.77
34674;BME280;20879;55.668;37.858;2023-02-16T12:17:00;100587.25;;;-3.70;62.01
34674;BME280;20879;55.668;37.858;2023-02-16T12:19:39;100573.47;;;-3.75;62.40
34674;BME280;20879;55.668;37.858;2023-02-16T12:22:21;100575.38;;;-3.71;62.81
34674;BME280;20879;55.668;37.858;2023-02-16T12:25:18;100571.81;;;-3.75;62.64
34674;BME280;20879;55.668;37.858;2023-02-16T12:27:58;100580.13;;;-3.77;63.04
34674;BME280;20879;55.668;37.858;2023-02-16T12:30:36;100577.41;;;-3.80;62.76
34674;BME280;20879;55.668;37.858;2023-02-16T12:33:23;100596.69;;;-3.82;63.17
34674;BME280;20879;55.668;37.858;2023-02-16T12:36:28;100585.00;;;-3.65;63.62
34674;BME280;20879;55.668;37.858;2023-02-16T12:39:08;100574.53;;;-3.72;62.21
34674;BME280;20879;55.668;37.858;2023-02-16T12:41:52;100603.66;;;-3.63;62.00
34674;BME280;20879;55.668;37.858;2023-02-16T12:44:31;100582.88;;;-3.58;62.24
34674;BME280;20879;55.668;37.858;2023-02-16T12:53:28;100529.66;;;-3.74;61.62
34674;BME280;20879;55.668;37.858;2023-02-16T12:56:02;100580.38;;;-3.88;63.01
34674;BME280;20879;55.668;37.858;2023-02-16T12:58:39;100600.19;;;-3.80;63.17
34674;BME280;20879;55.668;37.858;2023-02-16T13:01:12;100559.34;;;-4.01;63.62
34674;BME280;20879;55.668;37.858;2023-02-16T13:03:49;100593.44;;;-3.65;63.93
34674;BME280;20879;55.668;37.858;2023-02-16T13:06:30;100590.41;;;-3.74;63.26
34674;BME280;20879;55.668;37.858;2023-02-16T13:09:13;100586.31;;;-3.87;63.83
34674;BME280;20879;55.668;37.858;2023-02-16T13:11:56;100594.59;;;-3.75;63.50
34674;BME280;20879;55.668;37.858;2023-02-16T13:14:36;100583.09;;;-3.99;63.78
34674;BME280;20879;55.668;37.858;2023-02-16T13:17:16;100602.25;;;-4.03;63.69
34674;BME280;20879;55.668;37.858;2023-02-16T13:19:51;100594.66;;;-4.33;65.03
34674;BME280;20879;55.668;37.858;2023-02-16T13:22:41;100538.53;;;-4.56;65.02
34674;BME280;20879;55.668;37.858;2023-02-16T13:25:33;100524.69;;;-4.91;65.51
34674;BME280;20879;55.668;37.858;2023-02-16T13:28:17;100605.84;;;-4.58;65.36
34674;BME280;20879;55.668;37.858;2023-02-16T13:31:11;100593.91;;;-4.45;64.42
34674;BME280;20879;55.668;37.858;2023-02-16T13:37:08;100594.75;;;-4.31;63.85